Time;durP1;ratioP1;P1;durP2;ratioP2;P2;SDS_P1;SDS_P2;PMS_P1;PMS_P2;Temp;Humidity;BMP_temperature;BMP_pressure;BME280_temperature;BME280_humidity;BME280_pressure;Samples;Min_cycle;Max_cycle;Signal;HPM_P1;HPM_P2
2022/04/23 00:01:28;;;;;;;10.40;7.72;;;;;;;9.14;77.44;99987.99;1769336;80;21075;-65
2022/04/23 00:03:59;;;;;;;12.00;7.35;;;;;;;9.13;77.38;99990.41;1771578;80;21023;-63
2022/04/23 00:06:29;;;;;;;11.25;6.78;;;;;;;9.13;77.19;99993.14;1760953;81;21453;-66
2022/04/23 00:09:00;;;;;;;12.18;8.28;;;;;;;9.11;77.13;99993.86;1766946;81;21019;-66
2022/04/23 00:11:29;;;;;;;10.78;7.45;;;;;;;9.11;77.04;99994.37;1769202;80;22106;-66
2022/04/23 00:13:59;;;;;;;10.82;7.87;;;;;;;9.11;77.11;99990.28;1772883;80;20964;-67
2022/04/23 00:16:29;;;;;;;13.48;7.97;;;;;;;9.11;77.16;99967.89;1747652;80;20996;-66
2022/04/23 00:18:58;;;;;;;11.50;7.08;;;;;;;9.11;77.13;99965.16;1771272;80;21000;-65
2022/04/23 00:21:27;;;;;;;12.50;7.35;;;;;;;9.11;76.94;99967.05;1765094;81;21428;-65
2022/04/23 00:23:57;;;;;;;11.22;6.97;;;;;;;9.09;76.98;99972.68;1770667;81;20976;-66
2022/04/23 00:26:28;;;;;;;11.12;7.42;;;;;;;9.08;77.03;99970.99;1764203;81;21393;-65
2022/04/23 00:28:57;;;;;;;10.38;7.42;;;;;;;9.08;77.12;99972.88;1765790;81;21475;-65
2022/04/23 00:31:26;;;;;;;10.93;7.22;;;;;;;9.07;77.08;99971.19;1718661;81;21421;-67
2022/04/23 00:33:57;;;;;;;8.90;6.42;;;;;;;9.05;77.06;99968.66;1740607;81;20991;-66
2022/04/23 00:36:28;;;;;;;9.88;6.85;;;;;;;9.05;77.08;99971.91;1766684;80;21012;-66
2022/04/23 00:38:57;;;;;;;11.53;7.70;;;;;;;9.03;77.01;99963.06;1761719;80;21019;-66
2022/04/23 00:41:46;;;;;;;11.25;7.33;;;;;;;9.01;76.95;99961.89;1771824;80;21027;-66
2022/04/23 00:44:15;;;;;;;10.13;7.15;;;;;;;8.99;77.13;99954.42;1741268;81;21460;-66
2022/04/23 00:46:45;;;;;;;11.00;7.17;;;;;;;8.97;77.16;99959.23;1718684;81;20980;-66
2022/04/23 00:49:15;;;;;;;10.40;6.55;;;;;;;8.95;77.14;99941.35;1775183;80;21059;-64
2022/04/23 00:51:44;;;;;;;11.75;6.40;;;;;;;8.94;77.15;99939.14;1739521;81;21000;-65
2022/04/23 00:54:14;;;;;;;12.33;6.83;;;;;;;8.93;77.28;99929.26;1770606;80;21003;-65
2022/04/23 00:56:43;;;;;;;10.18;6.45;;;;;;;8.90;77.19;99929.66;1769847;80;20984;-64
2022/04/23 00:59:14;;;;;;;9.43;6.35;;;;;;;8.88;77.13;99933.11;1770416;80;21409;-66
2022/04/23 01:01:43;;;;;;;12.10;6.17;;;;;;;8.85;77.24;99928.88;1753654;81;20980;-64
2022/04/23 01:04:14;;;;;;;8.15;5.70;;;;;;;8.83;77.44;99936.95;1674968;85;21452;-66
2022/04/23 01:06:44;;;;;;;10.23;5.80;;;;;;;8.80;77.44;99938.20;1683748;85;21048;-67
2022/04/23 01:09:13;;;;;;;9.05;6.30;;;;;;;8.79;77.42;99934.30;1678377;85;21007;-65
2022/04/23 01:11:42;;;;;;;7.55;5.80;;;;;;;8.77;77.52;99931.77;1684372;85;21022;-66
2022/04/23 01:14:11;;;;;;;12.63;6.85;;;;;;;8.76;77.71;99927.86;1682936;85;21035;-65
2022/04/23 01:16:42;;;;;;;9.75;5.42;;;;;;;8.73;77.62;99928.25;1669474;85;21031;-66
2022/04/23 01:19:13;;;;;;;7.95;5.17;;;;;;;8.70;77.29;99930.02;1678603;85;21023;-68
2022/04/23 01:21:43;;;;;;;8.85;5.08;;;;;;;8.67;77.35;99922.22;1694544;81;21552;-65
2022/04/23 01:24:12;;;;;;;8.00;5.15;;;;;;;8.66;77.39;99916.43;1761985;80;21028;-65
2022/04/23 01:26:41;;;;;;;7.72;5.37;;;;;;;8.64;77.20;99919.88;1763844;80;21429;-66
2022/04/23 01:29:10;;;;;;;6.72;5.10;;;;;;;8.62;77.28;99915.14;1764015;81;21027;-66
2022/04/23 01:31:41;;;;;;;6.35;4.62;;;;;;;8.62;77.08;99921.45;1766767;80;21008;-65
2022/04/23 01:34:10;;;;;;;5.97;4.03;;;;;;;8.60;76.98;99917.22;1764264;80;21394;-65
2022/04/23 01:36:41;;;;;;;5.12;4.00;;;;;;;8.57;76.77;99917.94;1773125;80;21015;-66
2022/04/23 01:39:09;;;;;;;8.68;4.40;;;;;;;8.57;76.56;99911.63;1773223;80;21035;-65
2022/04/23 01:41:38;;;;;;;7.10;4.40;;;;;;;8.53;76.32;99913.91;1765447;80;21091;-66
2022/04/23 01:44:07;;;;;;;7.58;4.85;;;;;;;8.49;76.18;99916.71;1763857;81;21044;-68
2022/04/23 01:46:36;;;;;;;6.47;4.30;;;;;;;8.47;76.29;99902.41;1761463;81;21024;-66
2022/04/23 01:49:05;;;;;;;9.45;5.03;;;;;;;8.47;76.16;99912.48;1767874;80;20964;-65
2022/04/23 01:51:35;;;;;;;6.05;3.65;;;;;;;8.44;76.23;99911.48;1771139;80;21004;-63
2022/04/23 01:54:05;;;;;;;6.25;4.15;;;;;;;8.43;76.18;99908.42;1768283;80;21047;-64
2022/04/23 01:56:35;;;;;;;5.40;4.37;;;;;;;8.42;76.15;99906.73;1740399;80;21012;-65
2022/04/23 01:59:04;;;;;;;5.70;3.95;;;;;;;8.39;76.20;99903.88;1733532;81;21059;-65
2022/04/23 02:01:34;;;;;;;6.30;4.40;;;;;;;8.36;76.32;99906.16;1767598;80;21043;-66
2022/04/23 02:04:06;;;;;;;6.30;4.00;;;;;;;8.32;76.43;99904.30;1766260;80;20980;-65
2022/04/23 02:06:35;;;;;;;5.65;3.95;;;;;;;8.28;76.46;99902.48;1761386;80;21021;-66
2022/04/23 02:09:04;;;;;;;5.95;4.30;;;;;;;8.27;76.70;99906.77;1770564;81;21015;-64
2022/04/23 02:11:33;;;;;;;5.53;4.40;;;;;;;8.26;76.88;99898.27;1768582;81;21440;-67
2022/04/23 02:14:03;;;;;;;6.78;4.67;;;;;;;8.24;77.08;99900.34;1768424;81;21401;-64
2022/04/23 02:16:33;;;;;;;7.42;4.30;;;;;;;8.23;77.27;99913.14;1771259;80;20964;-65
2022/04/23 02:19:04;;;;;;;6.00;3.83;;;;;;;8.24;77.50;99895.73;1770409;80;20956;-63
2022/04/23 02:21:33;;;;;;;8.45;4.10;;;;;;;8.26;77.56;99896.90;1767586;80;21016;-65
2022/04/23 02:24:04;;;;;;;7.58;4.22;;;;;;;8.26;77.74;99895.53;1765501;80;21051;-67
2022/04/23 02:26:33;;;;;;;6.08;4.58;;;;;;;8.26;77.88;99893.65;1765879;80;21385;-65
2022/04/23 02:29:03;;;;;;;8.85;4.78;;;;;;;8.25;78.16;99893.33;1766826;81;21012;-67
2022/04/23 02:31:32;;;;;;;6.58;4.45;;;;;;;8.23;78.38;99892.67;1762511;81;21421;-67
2022/04/23 02:34:02;;;;;;;7.15;4.17;;;;;;;8.21;78.62;99905.67;1767906;81;21405;-67
2022/04/23 02:36:32;;;;;;;5.95;4.22;;;;;;;8.20;78.89;99917.63;1763720;80;21016;-63
2022/04/23 02:39:02;;;;;;;6.67;4.37;;;;;;;8.14;79.17;99910.22;1769530;81;21444;-65
2022/04/23 02:41:32;;;;;;;6.87;4.70;;;;;;;8.12;79.57;99907.36;1773669;80;21389;-65
2022/04/23 02:44:03;;;;;;;7.80;4.80;;;;;;;8.09;80.05;99911.31;1773212;80;21429;-66
2022/04/23 02:46:32;;;;;;;9.03;5.45;;;;;;;8.06;80.57;99914.95;1675466;85;21042;-65
2022/04/23 02:49:02;;;;;;;6.15;4.55;;;;;;;8.03;81.02;99919.44;1679202;85;21027;-64
2022/04/23 02:51:33;;;;;;;9.10;4.70;;;;;;;7.99;81.66;99916.77;1680898;85;21069;-65
2022/04/23 02:54:02;;;;;;;5.58;4.22;;;;;;;7.95;82.20;99913.58;1678144;85;21071;-66
2022/04/23 02:56:33;;;;;;;7.33;4.10;;;;;;;7.90;82.60;99910.06;1677397;85;21405;-65
2022/04/23 02:59:02;;;;;;;7.87;4.50;;;;;;;7.87;82.90;99915.06;1681855;85;21055;-65
2022/04/23 03:01:31;;;;;;;6.33;4.55;;;;;;;7.82;83.24;99908.81;1680320;85;21019;-65
2022/04/23 03:04:01;;;;;;;7.08;4.50;;;;;;;7.79;83.54;99895.53;1699696;81;20996;-65
2022/04/23 03:06:33;;;;;;;6.80;4.12;;;;;;;7.81;83.73;99887.19;1768968;80;21437;-64
2022/04/23 03:09:03;;;;;;;6.80;4.10;;;;;;;7.77;83.85;99900.33;1764825;80;20968;-65
2022/04/23 03:11:33;;;;;;;7.58;4.17;;;;;;;7.73;84.00;99904.48;1771524;80;20996;-66
2022/04/23 03:14:04;;;;;;;9.18;4.50;;;;;;;7.73;84.15;99896.30;1767156;81;21012;-63
2022/04/23 03:16:33;;;;;;;7.83;4.15;;;;;;;7.72;84.32;99901.95;1750273;81;21035;-64
2022/04/23 03:19:03;;;;;;;4.65;3.85;;;;;;;7.71;84.49;99905.71;1768838;80;20973;-63
2022/04/23 03:21:34;;;;;;;6.42;4.20;;;;;;;7.70;84.41;99908.11;1769492;80;21003;-64
2022/04/23 03:24:04;;;;;;;6.15;4.12;;;;;;;7.70;84.51;99910.31;1765912;81;21000;-65
2022/04/23 03:26:33;;;;;;;6.10;4.58;;;;;;;7.67;84.39;99905.25;1758417;81;21039;-65
2022/04/23 03:29:03;;;;;;;8.28;4.37;;;;;;;7.64;84.48;99896.09;1740747;81;20996;-64
2022/04/23 03:31:32;;;;;;;6.62;4.28;;;;;;;7.64;84.54;99893.36;1777459;80;20999;-65
2022/04/23 03:34:01;;;;;;;6.25;4.00;;;;;;;7.64;84.62;99901.02;1773844;80;20988;-65
2022/04/23 03:36:32;;;;;;;5.60;3.45;;;;;;;7.65;84.59;99893.69;1776489;80;21419;-63
2022/04/23 03:39:02;;;;;;;7.28;4.50;;;;;;;7.62;84.46;99896.80;1740450;81;21047;-63
2022/04/23 03:41:31;;;;;;;6.62;4.45;;;;;;;7.60;84.52;99894.78;1739733;80;21031;-65
2022/04/23 03:44:00;;;;;;;7.90;4.42;;;;;;;7.61;84.53;99893.74;1773736;80;21417;-64
2022/04/23 03:46:31;;;;;;;9.03;4.65;;;;;;;7.59;84.58;99887.63;1772176;80;21012;-64
2022/04/23 03:49:01;;;;;;;5.87;3.72;;;;;;;7.58;84.64;99888.67;1748704;80;21013;-65
2022/04/23 03:51:30;;;;;;;5.92;3.90;;;;;;;7.58;84.67;99891.40;1766733;80;20988;-63
2022/04/23 03:54:01;;;;;;;6.62;4.20;;;;;;;7.58;84.71;99888.67;1706871;83;21016;-65
2022/04/23 03:56:31;;;;;;;6.70;4.50;;;;;;;7.55;84.74;99882.23;1691922;83;21022;-65
2022/04/23 03:59:01;;;;;;;6.33;4.65;;;;;;;7.52;84.79;99889.44;1692382;83;21069;-65
2022/04/23 04:01:30;;;;;;;7.67;4.60;;;;;;;7.49;84.88;99889.30;1678613;83;21098;-66
2022/04/23 04:04:01;;;;;;;6.30;4.20;;;;;;;7.49;84.99;99885.21;1701737;83;21492;-63
2022/04/23 04:06:32;;;;;;;6.55;3.67;;;;;;;7.52;85.22;99885.34;1694109;83;20999;-64
2022/04/23 04:09:01;;;;;;;7.67;4.37;;;;;;;7.53;85.37;99882.43;1703726;83;21036;-65
2022/04/23 04:12:01;;;;;;;6.17;4.42;;;;;;;7.53;85.40;99880.22;1723108;80;20964;-65
2022/04/23 04:14:01;;;;;;;6.53;4.50;;;;;;;7.52;85.60;99878.53;1766671;80;21150;-66
2022/04/23 04:16:32;;;;;;;5.92;4.50;;;;;;;7.49;85.80;99876.19;1770087;80;21015;-65
2022/04/23 04:19:02;;;;;;;6.33;4.50;;;;;;;7.49;85.94;99875.67;1769877;80;21004;-65
2022/04/23 04:21:32;;;;;;;10.05;4.45;;;;;;;7.51;86.09;99873.59;1769771;81;20976;-64
2022/04/23 04:24:02;;;;;;;8.18;4.80;;;;;;;7.51;86.16;99877.69;1770210;80;20988;-66
2022/04/23 04:26:32;;;;;;;7.08;5.12;;;;;;;7.51;86.26;99876.32;1735128;81;21049;-64
2022/04/23 04:29:01;;;;;;;7.47;4.47;;;;;;;7.50;86.38;99873.79;1772502;80;21455;-64
2022/04/23 04:31:47;;;;;;;7.05;4.75;;;;;;;7.49;86.53;99878.91;1770077;80;21012;-63
2022/04/23 04:34:25;;;;;;;7.50;4.80;;;;;;;7.49;86.69;99871.58;1773142;80;21012;-62
2022/04/23 04:37:10;;;;;;;7.53;4.47;;;;;;;7.50;86.81;99866.45;1735596;81;21035;-65
2022/04/23 04:39:41;;;;;;;8.55;5.05;;;;;;;7.52;86.96;99858.93;1772778;80;21024;-66
2022/04/23 04:42:12;;;;;;;8.68;5.35;;;;;;;7.51;87.11;99857.76;1765668;81;20989;-65
2022/04/23 04:44:41;;;;;;;9.05;5.35;;;;;;;7.49;87.13;99857.11;1769619;80;20980;-63
2022/04/23 04:47:11;;;;;;;7.25;4.83;;;;;;;7.52;87.30;99862.17;1769808;80;21529;-63
2022/04/23 04:49:40;;;;;;;6.90;4.17;;;;;;;7.57;87.34;99859.72;1686132;85;21374;-65
2022/04/23 04:52:08;;;;;;;7.95;4.78;;;;;;;7.58;87.23;99852.71;1674609;83;21043;-67
2022/04/23 04:54:39;;;;;;;10.50;5.47;;;;;;;7.58;87.15;99860.89;1671024;85;21011;-67
2022/04/23 04:57:08;;;;;;;8.55;4.78;;;;;;;7.60;87.25;99862.06;1676631;85;21448;-65
2022/04/23 04:59:38;;;;;;;7.03;5.00;;;;;;;7.63;87.15;99858.44;1675914;85;21016;-64
2022/04/23 05:02:09;;;;;;;8.10;4.85;;;;;;;7.66;87.10;99858.56;1682037;85;21503;-65
2022/04/23 05:04:40;;;;;;;8.38;5.10;;;;;;;7.69;87.00;99851.89;1679860;85;21011;-65
2022/04/23 05:07:11;;;;;;;7.80;5.42;;;;;;;7.72;86.73;99850.98;1702453;81;21055;-65
2022/04/23 05:09:40;;;;;;;7.00;5.10;;;;;;;7.74;86.68;99854.36;1769595;80;21105;-64
2022/04/23 05:12:11;;;;;;;8.68;5.00;;;;;;;7.79;86.48;99850.53;1765706;80;21071;-65
2022/04/23 05:14:41;;;;;;;7.78;5.28;;;;;;;7.85;86.27;99858.49;1765580;80;20964;-66
2022/04/23 05:17:12;;;;;;;6.78;4.58;;;;;;;7.90;86.19;99858.75;1772014;80;20976;-65
2022/04/23 05:19:42;;;;;;;8.75;5.00;;;;;;;7.97;86.12;99847.39;1770909;80;21028;-64
2022/04/23 05:22:13;;;;;;;8.28;5.30;;;;;;;8.06;85.93;99849.47;1769719;80;21445;-65
2022/04/23 05:24:41;;;;;;;7.87;5.42;;;;;;;8.13;85.65;99851.22;1773048;81;21031;-63
2022/04/23 05:27:11;;;;;;;8.00;5.20;;;;;;;8.19;85.55;99844.14;1771932;80;21095;-65
2022/04/23 05:29:41;;;;;;;6.60;4.97;;;;;;;8.27;84.92;99855.77;1724447;81;20988;-67
2022/04/23 05:32:11;;;;;;;7.60;5.40;;;;;;;8.31;84.58;99853.48;1764846;80;21007;-65
2022/04/23 05:34:40;;;;;;;7.28;5.08;;;;;;;8.35;84.22;99839.80;1714807;80;21423;-68
2022/04/23 05:37:11;;;;;;;7.95;5.30;;;;;;;8.41;83.98;99837.65;1727119;82;21051;-63
2022/04/23 05:39:41;;;;;;;7.58;5.28;;;;;;;8.47;83.85;99838.25;1739806;81;21008;-65
2022/04/23 05:42:10;;;;;;;8.00;5.15;;;;;;;8.49;83.70;99832.07;1733649;82;21086;-65
2022/04/23 05:44:39;;;;;;;8.90;5.53;;;;;;;8.52;83.15;99830.83;1766268;80;21028;-64
2022/04/23 05:47:09;;;;;;;6.30;4.47;;;;;;;8.56;83.23;99837.58;1771345;80;20996;-64
2022/04/23 05:49:38;;;;;;;7.92;5.30;;;;;;;8.62;82.83;99830.48;1770017;81;21044;-64
2022/04/23 05:52:10;;;;;;;7.83;5.62;;;;;;;8.63;82.80;99828.08;1765470;80;21453;-66
2022/04/23 05:54:39;;;;;;;7.00;5.12;;;;;;;8.65;82.89;99822.73;1770751;80;21463;-64
2022/04/23 05:57:08;;;;;;;7.80;5.00;;;;;;;8.70;82.80;99837.16;1735373;81;20993;-67
2022/04/23 05:59:38;;;;;;;8.53;5.08;;;;;;;8.73;82.57;99824.47;1765713;80;21049;-64
2022/04/23 06:02:07;;;;;;;7.03;5.28;;;;;;;8.75;82.45;99836.04;1772697;80;21432;-67
2022/04/23 06:04:39;;;;;;;7.00;5.45;;;;;;;8.77;82.34;99838.05;1650063;85;21731;-66
2022/04/23 06:07:13;;;;;;;7.80;5.50;;;;;;;8.78;82.12;99824.71;1685352;85;21538;-66
2022/04/23 06:09:43;;;;;;;7.50;5.30;;;;;;;8.82;81.75;99834.19;1681698;85;21006;-65
2022/04/23 06:12:12;;;;;;;9.90;5.12;;;;;;;8.81;81.54;99827.05;1676626;85;21060;-67
2022/04/23 06:14:44;;;;;;;8.35;5.85;;;;;;;8.83;81.26;99827.16;1684535;85;21160;-67
2022/04/23 06:17:13;;;;;;;7.65;5.35;;;;;;;8.87;81.37;99823.51;1678312;85;21039;-66
2022/04/23 06:19:43;;;;;;;8.65;6.28;;;;;;;8.94;81.42;99830.38;1680164;85;21027;-65
2022/04/23 06:22:13;;;;;;;8.45;5.53;;;;;;;9.01;81.17;99822.54;1653985;85;21476;-66
2022/04/23 06:24:43;;;;;;;7.87;5.35;;;;;;;9.09;80.80;99825.11;1627590;87;21038;-68
2022/04/23 06:27:12;;;;;;;7.65;5.25;;;;;;;9.18;80.31;99817.09;1599955;89;21455;-68
2022/04/23 06:29:41;;;;;;;7.62;5.53;;;;;;;9.26;80.25;99812.50;1657070;85;21498;-67
2022/04/23 06:32:12;;;;;;;9.33;6.20;;;;;;;9.36;80.06;99817.06;1643471;84;21449;-67
2022/04/23 06:34:42;;;;;;;10.53;5.97;;;;;;;9.45;79.82;99811.73;1682146;84;21043;-67
2022/04/23 06:37:11;;;;;;;7.83;5.72;;;;;;;9.52;79.50;99810.70;1654499;85;21063;-66
2022/04/23 06:39:41;;;;;;;7.30;5.28;;;;;;;9.59;79.00;99799.78;1714762;83;21091;-67
2022/04/23 06:42:10;;;;;;;7.67;5.35;;;;;;;9.63;78.31;99794.22;1692456;82;21057;-66
2022/04/23 06:44:40;;;;;;;7.87;5.50;;;;;;;9.66;77.75;99802.02;1722171;80;21016;-67
2022/04/23 06:47:10;;;;;;;8.25;5.35;;;;;;;9.70;77.52;99795.08;1770688;80;20964;-65
2022/04/23 06:49:39;;;;;;;9.15;5.22;;;;;;;9.78;77.48;99794.08;1768953;81;21395;-66
2022/04/23 06:52:10;;;;;;;7.75;5.20;;;;;;;9.91;76.57;99796.83;1713819;80;21023;-65
2022/04/23 06:54:41;;;;;;;9.88;5.30;;;;;;;10.04;75.74;99797.38;1774625;80;20972;-66
2022/04/23 06:57:10;;;;;;;8.13;4.75;;;;;;;10.17;75.57;99792.75;1773940;81;20980;-66
2022/04/23 06:59:40;;;;;;;9.53;5.60;;;;;;;10.26;74.43;99792.05;1769207;80;21015;-64
2022/04/23 07:02:10;;;;;;;9.95;5.20;;;;;;;10.33;74.25;99790.15;1767955;80;21004;-67
2022/04/23 07:04:40;;;;;;;7.30;5.03;;;;;;;10.41;73.30;99780.91;1772920;80;20976;-67
2022/04/23 07:07:10;;;;;;;9.73;5.30;;;;;;;10.54;72.92;99784.16;1769825;80;20988;-68
2022/04/23 07:09:40;;;;;;;7.87;5.53;;;;;;;10.70;72.39;99779.60;1712347;83;21524;-66
2022/04/23 07:12:10;;;;;;;8.85;5.40;;;;;;;10.82;71.99;99779.78;1705611;83;21012;-66
2022/04/23 07:14:39;;;;;;;7.45;5.03;;;;;;;10.88;71.39;99771.55;1707043;83;20992;-66
2022/04/23 07:17:10;;;;;;;8.93;5.28;;;;;;;10.92;70.42;99779.66;1703445;83;21011;-65
2022/04/23 07:19:41;;;;;;;9.08;5.47;;;;;;;10.95;70.37;99779.22;1700787;83;21535;-66
2022/04/23 07:22:12;;;;;;;8.18;4.78;;;;;;;10.97;69.65;99774.36;1708824;83;21052;-65
2022/04/23 07:24:42;;;;;;;8.43;5.15;;;;;;;11.02;69.58;99760.85;1707504;83;21044;-67
2022/04/23 07:27:12;;;;;;;7.62;5.17;;;;;;;11.20;68.29;99767.56;1720626;81;21441;-64
2022/04/23 07:29:42;;;;;;;8.10;5.33;;;;;;;11.44;67.23;99766.29;1773092;81;21015;-65
2022/04/23 07:32:13;;;;;;;9.08;5.10;;;;;;;11.71;67.51;99756.03;1772357;80;21539;-64
2022/04/23 07:37:31;;;;;;;9.18;5.00;;;;;;;12.28;65.71;99754.69;1773825;80;21027;-64
2022/04/23 07:40:06;;;;;;;6.50;4.42;;;;;;;12.54;63.77;99748.97;1773758;81;21024;-65
2022/04/23 07:42:34;;;;;;;8.78;5.30;;;;;;;12.75;62.39;99751.83;1767003;80;21031;-66
2022/04/23 07:45:05;;;;;;;7.00;5.17;;;;;;;12.99;62.34;99740.45;1775685;80;21134;-67
2022/04/23 07:47:35;;;;;;;7.53;5.05;;;;;;;13.30;60.91;99738.95;1767505;80;21015;-67
2022/04/23 07:50:05;;;;;;;8.20;5.15;;;;;;;13.57;60.32;99738.05;1773097;81;21035;-67
2022/04/23 07:52:35;;;;;;;7.45;4.65;;;;;;;13.79;60.46;99739.77;1733188;80;21009;-64
2022/04/23 07:55:06;;;;;;;5.95;4.67;;;;;;;14.11;58.93;99739.48;1776934;80;21008;-67
2022/04/23 07:57:36;;;;;;;6.58;5.22;;;;;;;14.24;55.71;99729.63;1769897;80;21452;-66
2022/04/23 08:00:08;;;;;;;8.88;4.60;;;;;;;14.39;56.56;99723.67;1682019;83;21481;-66
2022/04/23 08:02:39;;;;;;;6.50;4.30;;;;;;;14.57;56.34;99727.72;1671241;84;21114;-67
2022/04/23 08:05:12;;;;;;;7.67;4.45;;;;;;;14.69;55.86;99720.28;1680834;84;21432;-66
2022/04/23 08:07:45;;;;;;;5.53;4.37;;;;;;;14.80;55.43;99714.45;1675189;85;22297;-67
2022/04/23 08:10:14;;;;;;;8.10;4.65;;;;;;;15.00;54.84;99711.33;1679327;85;21027;-66
2022/04/23 08:12:45;;;;;;;7.12;4.65;;;;;;;15.10;53.62;99707.41;1643479;85;21031;-65
2022/04/23 08:15:15;;;;;;;6.00;4.20;;;;;;;15.18;53.52;99710.62;1672377;85;21027;-64
2022/04/23 08:17:49;;;;;;;6.78;4.65;;;;;;;15.31;52.55;99705.89;1696394;81;21055;-64
2022/04/23 08:20:18;;;;;;;7.37;4.95;;;;;;;15.43;53.42;99695.10;1765494;80;21005;-66
2022/04/23 08:22:49;;;;;;;5.37;4.35;;;;;;;15.64;52.99;99696.93;1760099;81;21480;-66
2022/04/23 08:25:20;;;;;;;8.95;5.05;;;;;;;15.81;51.39;99695.87;1765706;80;21016;-66
2022/04/23 08:27:52;;;;;;;9.60;4.80;;;;;;;15.78;50.92;99685.86;1768876;81;20980;-65
2022/04/23 08:30:37;;;;;;;8.30;4.28;;;;;;;15.75;50.87;99687.74;1770323;80;21408;-65
2022/04/23 08:33:07;;;;;;;8.03;4.75;;;;;;;15.74;50.50;99692.97;1773926;80;21015;-64
2022/04/23 08:35:38;;;;;;;7.05;4.70;;;;;;;15.78;50.90;99695.53;1772811;80;21043;-64
2022/04/23 08:38:08;;;;;;;6.00;4.15;;;;;;;15.83;50.54;99685.95;1771984;80;21007;-64
2022/04/23 08:40:43;;;;;;;6.83;4.60;;;;;;;15.80;49.93;99691.43;1773116;80;21389;-64
2022/04/23 08:43:12;;;;;;;6.60;4.40;;;;;;;15.75;49.38;99683.59;1772070;80;20976;-64
2022/04/23 08:45:42;;;;;;;6.60;4.55;;;;;;;15.66;50.07;99674.88;1766466;81;21016;-63
2022/04/23 08:48:14;;;;;;;6.40;4.08;;;;;;;15.71;49.87;99661.16;1759432;80;21016;-65
2022/04/23 08:50:44;;;;;;;6.20;4.37;;;;;;;15.75;48.93;99665.10;1755325;81;21012;-63
2022/04/23 08:53:22;;;;;;;6.87;4.60;;;;;;;15.84;49.43;99679.34;1755701;81;21405;-65
2022/04/23 08:55:50;;;;;;;5.78;4.50;;;;;;;15.87;48.42;99667.79;1755430;81;20984;-65
2022/04/23 08:58:20;;;;;;;5.20;4.20;;;;;;;15.85;48.96;99664.44;1758723;81;20981;-66
2022/04/23 09:00:50;;;;;;;8.45;3.92;;;;;;;15.88;49.22;99652.05;1698771;84;21464;-64
2022/04/23 09:03:19;;;;;;;8.15;4.08;;;;;;;15.89;48.40;99656.48;1698843;83;21002;-65
2022/04/23 09:05:53;;;;;;;5.83;3.87;;;;;;;15.83;49.20;99646.73;1705917;83;21012;-65
2022/04/23 09:08:25;;;;;;;7.03;4.10;;;;;;;15.87;48.66;99646.23;1617841;87;21486;-64
2022/04/23 09:10:57;;;;;;;4.55;3.92;;;;;;;15.88;48.21;99642.37;1627710;88;21027;-65
2022/04/23 09:13:31;;;;;;;6.25;3.80;;;;;;;15.83;48.82;99643.97;1623866;87;21097;-65
2022/04/23 09:24:46;;;;;;;6.00;4.03;;;;;;;15.81;48.04;99635.09;1595904;89;21472;-65
2022/04/23 09:27:16;;;;;;;5.87;3.62;;;;;;;15.78;48.00;99632.00;1597480;89;21038;-66
2022/04/23 09:30:05;;;;;;;4.65;3.62;;;;;;;15.75;47.18;99626.97;1582634;89;21484;-66
2022/04/23 09:32:36;;;;;;;6.55;3.67;;;;;;;15.70;47.48;99636.02;1616792;85;21019;-65
2022/04/23 09:35:13;;;;;;;7.47;3.72;;;;;;;15.58;48.06;99620.03;1745814;81;21020;-64
2022/04/23 09:40:31;;;;;;;6.28;4.15;;;;;;;15.46;48.79;99624.20;1740706;81;21089;-64
2022/04/23 09:43:06;;;;;;;5.53;4.00;;;;;;;15.38;48.72;99619.09;1709031;83;21031;-66
2022/04/23 09:45:41;;;;;;;7.50;3.70;;;;;;;15.31;49.01;99609.30;1704981;83;21584;-63
2022/04/23 09:48:15;;;;;;;6.30;3.70;;;;;;;15.26;49.33;99610.03;1710926;83;21680;-66
2022/04/23 09:50:47;;;;;;;4.87;3.40;;;;;;;15.23;49.75;99599.49;1698730;83;21488;-65
2022/04/23 09:53:18;;;;;;;6.45;3.58;;;;;;;15.30;49.82;99608.45;1658327;84;21004;-63
2022/04/23 09:55:49;;;;;;;5.70;3.20;;;;;;;15.37;49.52;99602.23;1705679;83;21011;-65
2022/04/23 09:58:18;;;;;;;4.60;3.40;;;;;;;15.39;49.26;99596.47;1682178;84;21440;-66
2022/04/23 10:00:48;;;;;;;5.45;3.80;;;;;;;15.38;49.23;99587.34;1727330;80;21024;-66
2022/04/23 10:03:18;;;;;;;6.08;3.20;;;;;;;15.42;48.42;99581.63;1767341;80;21019;-66
2022/04/23 10:05:48;;;;;;;5.05;3.45;;;;;;;15.42;48.18;99577.48;1768845;80;20991;-65
2022/04/23 10:08:23;;;;;;;7.83;3.72;;;;;;;15.37;48.28;99580.16;1681369;85;21038;-65
2022/04/23 10:11:10;;;;;;;4.95;3.80;;;;;;;15.32;49.01;99585.58;1678916;85;21035;-64
2022/04/23 10:13:40;;;;;;;6.33;4.00;;;;;;;15.27;49.29;99582.73;1624293;87;21153;-64
2022/04/23 10:16:10;;;;;;;6.87;4.17;;;;;;;15.23;49.79;99571.35;1623292;88;21030;-65
2022/04/23 10:18:42;;;;;;;6.78;3.58;;;;;;;15.23;50.25;99564.45;1625514;88;21435;-65
2022/04/23 10:21:24;;;;;;;3.30;2.87;;;;;;;15.26;48.50;99566.42;1626386;87;21130;-65
2022/04/23 10:24:28;;;;;;;4.65;2.77;;;;;;;15.26;47.91;99566.42;1632049;87;21094;-66
2022/04/23 10:26:59;;;;;;;6.10;2.67;;;;;;;15.23;47.00;99556.17;1631162;87;21420;-66
2022/04/23 10:29:31;;;;;;;6.08;2.70;;;;;;;15.29;47.76;99548.82;1553495;91;21492;-66
2022/04/23 10:32:17;;;;;;;2.80;2.35;;;;;;;15.36;46.33;99542.59;1616467;82;21075;-66
2022/04/23 10:34:47;;;;;;;3.33;2.30;;;;;;;15.45;46.10;99539.72;1734425;82;21016;-65
2022/04/23 10:37:24;;;;;;;5.62;2.12;;;;;;;15.54;45.35;99538.20;1729812;82;21426;-67
2022/04/23 10:39:58;;;;;;;8.08;2.00;;;;;;;15.67;44.89;99519.69;1731138;83;20985;-65
2022/04/23 10:42:31;;;;;;;4.80;2.00;;;;;;;15.76;43.86;99536.96;1732158;82;21047;-66
2022/04/23 10:45:08;;;;;;;5.10;2.30;;;;;;;15.85;43.29;99528.53;1669683;85;21091;-66
2022/04/23 10:47:39;;;;;;;5.10;2.20;;;;;;;15.94;41.94;99517.89;1613486;85;21035;-65
2022/04/23 10:50:21;;;;;;;5.83;2.00;;;;;;;16.00;42.41;99518.80;1671600;85;21068;-67
2022/04/23 10:52:53;;;;;;;3.27;2.20;;;;;;;16.07;42.53;99507.02;1669998;85;21023;-68
2022/04/23 10:55:21;;;;;;;2.40;2.02;;;;;;;16.11;41.61;99511.77;1729539;82;21123;-66
2022/04/23 10:57:57;;;;;;;3.10;1.95;;;;;;;16.15;42.08;99513.48;1705663;82;21036;-66
2022/04/23 11:00:30;;;;;;;2.47;1.92;;;;;;;16.20;41.96;99501.11;1705938;83;21042;-65
2022/04/23 11:03:09;;;;;;;3.75;2.20;;;;;;;16.20;41.78;99508.56;1748668;80;21041;-65
2022/04/23 11:14:51;;;;;;;3.90;2.20;;;;;;;16.16;42.42;99500.78;1774204;80;20961;-65
2022/04/23 11:17:25;;;;;;;5.45;1.95;;;;;;;16.18;42.30;99508.27;1702473;83;20997;-66
2022/04/23 11:19:54;;;;;;;3.05;2.10;;;;;;;16.20;42.13;99501.66;1763401;80;20992;-64
2022/04/23 11:22:23;;;;;;;3.83;1.77;;;;;;;16.16;42.08;99489.73;1707234;83;21425;-65
2022/04/23 11:24:54;;;;;;;3.70;2.10;;;;;;;16.14;42.28;99489.16;1717694;82;21433;-65
2022/04/23 11:27:29;;;;;;;6.58;2.05;;;;;;;16.22;42.47;99497.54;1681585;84;20985;-65
2022/04/23 11:29:57;;;;;;;4.03;1.95;;;;;;;16.18;42.47;99493.62;1683665;82;20986;-62
2022/04/23 11:32:30;;;;;;;2.30;1.95;;;;;;;16.18;42.93;99504.67;1726397;82;21021;-65
2022/04/23 11:35:03;;;;;;;9.08;2.35;;;;;;;16.16;42.54;99495.26;1679285;85;21051;-66
2022/04/23 11:37:35;;;;;;;4.62;2.20;;;;;;;16.15;42.53;99488.60;1652155;85;21059;-70
2022/04/23 11:40:16;;;;;;;4.47;2.02;;;;;;;16.15;42.53;99489.98;1727311;82;21091;-68
2022/04/23 11:42:46;;;;;;;2.37;1.90;;;;;;;16.22;42.34;99488.41;1747519;80;21009;-65
2022/04/23 11:45:17;;;;;;;2.50;1.80;;;;;;;16.23;42.24;99472.12;1776493;80;21422;-68
2022/04/23 11:47:45;;;;;;;4.58;1.85;;;;;;;16.25;42.67;99463.02;1774061;79;21017;-66
2022/04/23 11:50:16;;;;;;;3.42;2.30;;;;;;;16.27;42.57;99469.99;1769541;80;21073;-65
2022/04/23 11:53:00;;;;;;;3.35;2.00;;;;;;;16.28;42.49;99455.62;1743867;81;21031;-68
2022/04/23 11:55:30;;;;;;;4.20;2.00;;;;;;;16.32;42.29;99461.77;1729564;81;21476;-67
2022/04/23 11:58:01;;;;;;;4.40;2.22;;;;;;;16.33;42.25;99459.83;1736749;82;21008;-67
2022/04/23 12:00:33;;;;;;;3.98;1.80;;;;;;;16.34;41.82;99451.83;1737644;81;20983;-67
2022/04/23 12:03:02;;;;;;;4.67;2.12;;;;;;;16.35;41.07;99451.57;1727943;82;21068;-69
2022/04/23 12:05:33;;;;;;;3.20;2.00;;;;;;;16.40;40.83;99454.39;1731474;82;21016;-69
2022/04/23 12:08:05;;;;;;;1.90;1.65;;;;;;;16.55;40.75;99447.36;1738526;82;21062;-68
2022/04/23 12:10:34;;;;;;;6.03;2.00;;;;;;;16.61;40.55;99447.16;1727308;80;21011;-67
2022/04/23 12:13:06;;;;;;;6.55;2.10;;;;;;;16.63;39.78;99435.28;1771177;80;21432;-71
2022/04/23 12:15:47;;;;;;;4.72;2.02;;;;;;;16.65;39.58;99438.66;1770918;80;21015;-70
2022/04/23 12:18:19;;;;;;;4.08;1.80;;;;;;;16.68;39.83;99425.69;1765723;80;21425;-72